Rocky Ridge, Maryland
Current Conditions -  °F | °C
As of 3:37 PM on Monday 22 Dec 2014 (Local Time) from KRYT Reporting Station
Haze Haze  
Wind Chill: 25°   Ceiling: 800
Heat Index: 30°   Visibility: 2.5mi
Dew Point: 27°   Wind: 5mph
Humidity: 86%   Direction: 50°NE
Pressure: 30.13"   Gusts: NA
Location:  39.6°N, 77.32°W
Report Text: KRYT 222037Z AUTO 05004KT 2 1/2SM UP BR BKN008 M01/M03 A3013 RMK AO2 P0000 $
Loading
Personal Weather Stations






























Interactive Weather Map New forecast layout! Learn more

10-Day Weather Forecast

Advertisements
Track Severe Weather on mobile